Airfield :







YOU CAN JOIN US ON...

 
LOGIN :

Register | Disclaimer

   EN    FR    IT 

 









Legend :    VFR   Marginal VFR   IFR   Intensive IFR   Very Intensive IFR
Visi :
Ceiling :
>= 8 km
>= 3000ft
5 to 8 km
1000 to 3000 ft
1500m to 5 km
500 to 1000 ft
800 to 1500m
200 to 500 ft
< 800m
< 200 ft
Symbols :   Thunderstorms  Fog  Heavy snow  Heavy precipitations  Wind > 20 kt







- Airport Elevation : 626 ft


KCAR - Caribou Municipal

CURRENT METAR :
  • 192254Z AUTO 19006KT 10SM FEW041 OVC049 11/07 A3004 RMK AO2 RAB09E29 SLP178 P0000 T01060067

EXPIRED METARs :
  • 192154Z AUTO 20004KT 10SM OVC048 12/06 A3004 RMK AO2 SLP178 T01220056
  • 192054Z AUTO 19007KT 10SM BKN060 OVC080 12/06 A3004 RMK AO2 SLP180 T01220056 58004
  • 191954Z AUTO 22007KT 10SM FEW033 OVC070 13/05 A3005 RMK AO2 SLP182 T01330050

TAF KCAR
Valid from the 19 at 18:00 until the 20 at 18:00 UTC


191733Z 1918/2018 23006KT P6SM BKN090
FM192300 17007KT P6SM VCSH OVC035
FM200200 15006KT 5SM -RA OVC027
FM200500 13007KT 5SM -RA OVC016
FM201000 12011KT 3SM -RA OVC007
KZBW FIR / North America



MET'MAP, your aeronautical weather chart ! - Copyright ORBIFLY December 2007 - Disclaimer

ORBIFLY MET'MAP TEAM :

Programming & Development : Alexandra Zaïnal
Concept & Development : Baudouin d'Aumeries
Co-Development & Prog : Marc-Olivier Méhu
Technical & hardware support : Manuel Goepfert

Contact : metmap@orbifly.com




SOURCES & CREDITS :

   NOAA